sensor_id;sensor_type;location;lat;lon;timestamp;temperature;humidity
80212;DHT22;70434;37.956;23.722;2023-08-08T00:01:06;30.50;42.30
80212;DHT22;70434;37.956;23.722;2023-08-08T00:03:32;30.60;42.40
80212;DHT22;70434;37.956;23.722;2023-08-08T00:05:58;30.50;42.90
80212;DHT22;70434;37.956;23.722;2023-08-08T00:08:23;30.50;43.30
80212;DHT22;70434;37.956;23.722;2023-08-08T00:10:49;30.30;43.40
80212;DHT22;70434;37.956;23.722;2023-08-08T00:13:15;30.30;43.30
80212;DHT22;70434;37.956;23.722;2023-08-08T00:15:41;30.20;43.00
80212;DHT22;70434;37.956;23.722;2023-08-08T00:18:06;30.20;42.80
80212;DHT22;70434;37.956;23.722;2023-08-08T00:20:32;30.10;42.30
80212;DHT22;70434;37.956;23.722;2023-08-08T00:22:58;30.20;42.10
80212;DHT22;70434;37.956;23.722;2023-08-08T00:25:23;30.10;41.80
80212;DHT22;70434;37.956;23.722;2023-08-08T00:27:50;30.20;41.70
80212;DHT22;70434;37.956;23.722;2023-08-08T00:30:16;30.10;41.70
80212;DHT22;70434;37.956;23.722;2023-08-08T00:32:41;30.10;41.90
80212;DHT22;70434;37.956;23.722;2023-08-08T00:35:08;30.10;41.80
80212;DHT22;70434;37.956;23.722;2023-08-08T00:37:34;30.10;41.70
80212;DHT22;70434;37.956;23.722;2023-08-08T00:40:00;30.00;41.40
80212;DHT22;70434;37.956;23.722;2023-08-08T00:42:25;29.90;41.50
80212;DHT22;70434;37.956;23.722;2023-08-08T00:44:51;29.90;41.40
80212;DHT22;70434;37.956;23.722;2023-08-08T00:47:17;29.90;41.50
80212;DHT22;70434;37.956;23.722;2023-08-08T00:49:43;29.90;41.30
80212;DHT22;70434;37.956;23.722;2023-08-08T00:52:12;30.00;41.30
80212;DHT22;70434;37.956;23.722;2023-08-08T00:54:38;30.00;41.30
80212;DHT22;70434;37.956;23.722;2023-08-08T00:57:04;30.00;41.30
80212;DHT22;70434;37.956;23.722;2023-08-08T00:59:31;29.90;41.10
80212;DHT22;70434;37.956;23.722;2023-08-08T01:01:58;29.90;41.10
80212;DHT22;70434;37.956;23.722;2023-08-08T01:04:25;29.90;41.20
80212;DHT22;70434;37.956;23.722;2023-08-08T01:09:51;29.90;41.30
80212;DHT22;70434;37.956;23.722;2023-08-08T01:12:18;29.90;41.00
80212;DHT22;70434;37.956;23.722;2023-08-08T01:14:45;29.90;40.70
80212;DHT22;70434;37.956;23.722;2023-08-08T01:17:12;29.90;40.50
80212;DHT22;70434;37.956;23.722;2023-08-08T01:19:38;30.00;40.40
80212;DHT22;70434;37.956;23.722;2023-08-08T01:22:15;30.00;40.30
80212;DHT22;70434;37.956;23.722;2023-08-08T01:24:43;29.90;40.50
80212;DHT22;70434;37.956;23.722;2023-08-08T01:27:10;29.80;40.50
80212;DHT22;70434;37.956;23.722;2023-08-08T01:29:36;29.70;40.80
80212;DHT22;70434;37.956;23.722;2023-08-08T01:32:03;29.70;40.60
80212;DHT22;70434;37.956;23.722;2023-08-08T01:34:29;29.70;40.80
80212;DHT22;70434;37.956;23.722;2023-08-08T01:37:06;29.80;40.90
80212;DHT22;70434;37.956;23.722;2023-08-08T01:39:34;29.70;40.90
80212;DHT22;70434;37.956;23.722;2023-08-08T01:42:00;29.70;41.20
80212;DHT22;70434;37.956;23.722;2023-08-08T01:44:27;29.60;41.30
80212;DHT22;70434;37.956;23.722;2023-08-08T01:46:54;29.50;41.80
80212;DHT22;70434;37.956;23.722;2023-08-08T01:49:20;29.40;42.10
80212;DHT22;70434;37.956;23.722;2023-08-08T01:51:46;29.40;42.10
80212;DHT22;70434;37.956;23.722;2023-08-08T01:54:13;29.40;42.20
80212;DHT22;70434;37.956;23.722;2023-08-08T01:56:39;29.40;42.20
80212;DHT22;70434;37.956;23.722;2023-08-08T01:59:05;29.40;42.20
80212;DHT22;70434;37.956;23.722;2023-08-08T02:01:30;29.40;42.30
80212;DHT22;70434;37.956;23.722;2023-08-08T02:03:56;29.40;42.30
80212;DHT22;70434;37.956;23.722;2023-08-08T02:06:22;29.50;42.20
80212;DHT22;70434;37.956;23.722;2023-08-08T02:08:48;29.50;41.90
80212;DHT22;70434;37.956;23.722;2023-08-08T02:11:14;29.50;42.10
80212;DHT22;70434;37.956;23.722;2023-08-08T02:13:39;29.40;42.10
80212;DHT22;70434;37.956;23.722;2023-08-08T02:16:05;29.50;42.00
80212;DHT22;70434;37.956;23.722;2023-08-08T02:18:31;29.40;42.40
80212;DHT22;70434;37.956;23.722;2023-08-08T02:20:56;29.40;42.50
80212;DHT22;70434;37.956;23.722;2023-08-08T02:23:22;29.40;42.60
80212;DHT22;70434;37.956;23.722;2023-08-08T02:25:48;29.30;42.90
80212;DHT22;70434;37.956;23.722;2023-08-08T02:28:13;29.30;43.00
80212;DHT22;70434;37.956;23.722;2023-08-08T02:30:39;29.30;43.00
80212;DHT22;70434;37.956;23.722;2023-08-08T02:33:05;29.20;44.10
80212;DHT22;70434;37.956;23.722;2023-08-08T02:35:30;29.20;43.40
80212;DHT22;70434;37.956;23.722;2023-08-08T02:37:56;29.10;43.70
80212;DHT22;70434;37.956;23.722;2023-08-08T02:40:22;29.20;43.50
80212;DHT22;70434;37.956;23.722;2023-08-08T02:42:52;29.20;43.50
80212;DHT22;70434;37.956;23.722;2023-08-08T02:45:18;29.10;43.60
80212;DHT22;70434;37.956;23.722;2023-08-08T02:47:43;29.10;43.70
80212;DHT22;70434;37.956;23.722;2023-08-08T02:50:09;29.10;43.70
80212;DHT22;70434;37.956;23.722;2023-08-08T02:52:35;29.20;43.60
80212;DHT22;70434;37.956;23.722;2023-08-08T02:55:01;29.20;43.40
80212;DHT22;70434;37.956;23.722;2023-08-08T02:57:28;29.20;43.30
80212;DHT22;70434;37.956;23.722;2023-08-08T02:59:53;29.20;43.00
80212;DHT22;70434;37.956;23.722;2023-08-08T03:02:19;29.20;43.20
80212;DHT22;70434;37.956;23.722;2023-08-08T03:04:45;29.20;43.10
80212;DHT22;70434;37.956;23.722;2023-08-08T03:07:10;29.30;42.90
80212;DHT22;70434;37.956;23.722;2023-08-08T03:09:36;29.30;43.30
80212;DHT22;70434;37.956;23.722;2023-08-08T03:12:02;29.20;43.10
80212;DHT22;70434;37.956;23.722;2023-08-08T03:14:28;29.20;43.60
80212;DHT22;70434;37.956;23.722;2023-08-08T03:16:54;29.10;43.60
80212;DHT22;70434;37.956;23.722;2023-08-08T03:19:19;29.20;43.30
80212;DHT22;70434;37.956;23.722;2023-08-08T03:21:45;29.10;43.20
80212;DHT22;70434;37.956;23.722;2023-08-08T03:24:11;29.10;43.30
80212;DHT22;70434;37.956;23.722;2023-08-08T03:26:36;29.10;43.40
80212;DHT22;70434;37.956;23.722;2023-08-08T03:29:02;29.10;43.30
80212;DHT22;70434;37.956;23.722;2023-08-08T03:31:28;29.20;43.40
80212;DHT22;70434;37.956;23.722;2023-08-08T03:33:54;29.20;43.30
80212;DHT22;70434;37.956;23.722;2023-08-08T03:36:19;29.20;43.30
80212;DHT22;70434;37.956;23.722;2023-08-08T03:38:46;29.10;43.30
80212;DHT22;70434;37.956;23.722;2023-08-08T03:41:12;29.20;43.30
80212;DHT22;70434;37.956;23.722;2023-08-08T03:43:39;29.10;43.40
80212;DHT22;70434;37.956;23.722;2023-08-08T03:46:05;29.20;43.50
80212;DHT22;70434;37.956;23.722;2023-08-08T03:48:31;29.20;43.50
80212;DHT22;70434;37.956;23.722;2023-08-08T03:50:57;29.20;43.20
80212;DHT22;70434;37.956;23.722;2023-08-08T03:53:23;29.20;43.30
80212;DHT22;70434;37.956;23.722;2023-08-08T03:55:48;29.20;43.30
80212;DHT22;70434;37.956;23.722;2023-08-08T03:58:14;29.20;43.30
80212;DHT22;70434;37.956;23.722;2023-08-08T04:00:40;29.30;43.00
80212;DHT22;70434;37.956;23.722;2023-08-08T04:03:16;29.30;42.90
80212;DHT22;70434;37.956;23.722;2023-08-08T04:05:44;29.40;42.80
80212;DHT22;70434;37.956;23.722;2023-08-08T04:08:17;29.40;42.80
80212;DHT22;70434;37.956;23.722;2023-08-08T04:10:43;29.40;42.60
80212;DHT22;70434;37.956;23.722;2023-08-08T04:13:12;29.40;42.80
80212;DHT22;70434;37.956;23.722;2023-08-08T04:15:38;29.40;43.00
80212;DHT22;70434;37.956;23.722;2023-08-08T04:18:04;29.40;43.00
80212;DHT22;70434;37.956;23.722;2023-08-08T04:20:34;29.40;42.90
80212;DHT22;70434;37.956;23.722;2023-08-08T04:23:00;29.40;42.80
80212;DHT22;70434;37.956;23.722;2023-08-08T04:25:27;29.30;42.80
80212;DHT22;70434;37.956;23.722;2023-08-08T04:27:53;29.30;43.10
80212;DHT22;70434;37.956;23.722;2023-08-08T04:30:18;29.30;43.30
80212;DHT22;70434;37.956;23.722;2023-08-08T04:32:45;29.40;43.70
80212;DHT22;70434;37.956;23.722;2023-08-08T04:35:10;29.40;43.80
80212;DHT22;70434;37.956;23.722;2023-08-08T04:37:36;29.40;43.60
80212;DHT22;70434;37.956;23.722;2023-08-08T04:40:02;29.40;43.10
80212;DHT22;70434;37.956;23.722;2023-08-08T04:42:29;29.40;43.10
80212;DHT22;70434;37.956;23.722;2023-08-08T04:44:55;29.40;42.80
80212;DHT22;70434;37.956;23.722;2023-08-08T04:47:21;29.40;43.00
80212;DHT22;70434;37.956;23.722;2023-08-08T04:49:47;29.30;43.00
80212;DHT22;70434;37.956;23.722;2023-08-08T04:52:13;29.30;43.00
80212;DHT22;70434;37.956;23.722;2023-08-08T04:54:38;29.30;43.30
80212;DHT22;70434;37.956;23.722;2023-08-08T04:57:04;29.30;43.60
80212;DHT22;70434;37.956;23.722;2023-08-08T04:59:30;29.30;43.20
80212;DHT22;70434;37.956;23.722;2023-08-08T05:01:56;29.40;44.30
80212;DHT22;70434;37.956;23.722;2023-08-08T05:04:21;29.40;43.40
80212;DHT22;70434;37.956;23.722;2023-08-08T05:06:47;29.20;44.40
80212;DHT22;70434;37.956;23.722;2023-08-08T05:09:13;29.20;43.50
80212;DHT22;70434;37.956;23.722;2023-08-08T05:11:39;29.40;42.30
80212;DHT22;70434;37.956;23.722;2023-08-08T05:14:04;29.50;41.50
80212;DHT22;70434;37.956;23.722;2023-08-08T05:16:30;29.60;41.50
80212;DHT22;70434;37.956;23.722;2023-08-08T05:18:56;29.70;41.20
80212;DHT22;70434;37.956;23.722;2023-08-08T05:21:22;29.70;40.60
80212;DHT22;70434;37.956;23.722;2023-08-08T05:23:47;29.70;40.70
80212;DHT22;70434;37.956;23.722;2023-08-08T05:26:14;29.70;40.90
80212;DHT22;70434;37.956;23.722;2023-08-08T05:28:40;29.80;41.10
80212;DHT22;70434;37.956;23.722;2023-08-08T05:31:06;29.90;41.20
80212;DHT22;70434;37.956;23.722;2023-08-08T05:33:32;29.90;40.50
80212;DHT22;70434;37.956;23.722;2023-08-08T05:35:58;29.90;40.80
80212;DHT22;70434;37.956;23.722;2023-08-08T05:38:24;29.70;40.80
80212;DHT22;70434;37.956;23.722;2023-08-08T05:40:50;29.60;41.70
80212;DHT22;70434;37.956;23.722;2023-08-08T05:43:17;29.50;41.50
80212;DHT22;70434;37.956;23.722;2023-08-08T05:45:47;29.60;41.50
80212;DHT22;70434;37.956;23.722;2023-08-08T05:48:12;29.80;41.00
80212;DHT22;70434;37.956;23.722;2023-08-08T05:50:39;30.00;40.70
80212;DHT22;70434;37.956;23.722;2023-08-08T05:53:05;30.00;39.70
80212;DHT22;70434;37.956;23.722;2023-08-08T05:55:31;30.10;39.20
80212;DHT22;70434;37.956;23.722;2023-08-08T05:57:57;30.20;39.30
80212;DHT22;70434;37.956;23.722;2023-08-08T06:00:22;30.30;38.40
80212;DHT22;70434;37.956;23.722;2023-08-08T06:02:49;30.30;37.80
80212;DHT22;70434;37.956;23.722;2023-08-08T06:05:16;30.40;37.90
80212;DHT22;70434;37.956;23.722;2023-08-08T06:07:42;30.40;37.80
80212;DHT22;70434;37.956;23.722;2023-08-08T06:10:09;30.50;37.90
80212;DHT22;70434;37.956;23.722;2023-08-08T06:12:35;30.60;37.90
80212;DHT22;70434;37.956;23.722;2023-08-08T06:15:01;30.60;37.80
80212;DHT22;70434;37.956;23.722;2023-08-08T06:17:26;30.60;37.60
80212;DHT22;70434;37.956;23.722;2023-08-08T06:19:52;30.70;37.40
80212;DHT22;70434;37.956;23.722;2023-08-08T06:22:19;30.80;36.70
80212;DHT22;70434;37.956;23.722;2023-08-08T06:24:45;30.80;36.50
80212;DHT22;70434;37.956;23.722;2023-08-08T06:27:12;30.80;36.40
80212;DHT22;70434;37.956;23.722;2023-08-08T06:29:39;30.80;35.50
80212;DHT22;70434;37.956;23.722;2023-08-08T06:32:05;30.90;35.40
80212;DHT22;70434;37.956;23.722;2023-08-08T06:34:30;31.00;35.60
80212;DHT22;70434;37.956;23.722;2023-08-08T06:36:56;31.00;35.50
80212;DHT22;70434;37.956;23.722;2023-08-08T06:39:22;31.10;35.50
80212;DHT22;70434;37.956;23.722;2023-08-08T06:41:48;31.10;35.50
80212;DHT22;70434;37.956;23.722;2023-08-08T06:44:14;31.10;35.60
80212;DHT22;70434;37.956;23.722;2023-08-08T06:46:40;31.10;35.20
80212;DHT22;70434;37.956;23.722;2023-08-08T06:49:06;31.00;34.10
80212;DHT22;70434;37.956;23.722;2023-08-08T06:51:32;31.00;34.50
80212;DHT22;70434;37.956;23.722;2023-08-08T06:53:58;31.00;34.70
80212;DHT22;70434;37.956;23.722;2023-08-08T06:56:24;31.00;34.50
80212;DHT22;70434;37.956;23.722;2023-08-08T06:58:52;31.10;34.30
80212;DHT22;70434;37.956;23.722;2023-08-08T07:01:18;31.20;34.00
80212;DHT22;70434;37.956;23.722;2023-08-08T07:03:43;31.30;34.30
80212;DHT22;70434;37.956;23.722;2023-08-08T07:06:10;31.30;34.10
80212;DHT22;70434;37.956;23.722;2023-08-08T07:08:36;31.40;34.20
80212;DHT22;70434;37.956;23.722;2023-08-08T07:11:05;31.40;34.10
80212;DHT22;70434;37.956;23.722;2023-08-08T07:13:32;31.50;33.80
80212;DHT22;70434;37.956;23.722;2023-08-08T07:15:57;31.50;34.00
80212;DHT22;70434;37.956;23.722;2023-08-08T07:18:23;31.50;33.90
80212;DHT22;70434;37.956;23.722;2023-08-08T07:20:49;31.60;33.70
80212;DHT22;70434;37.956;23.722;2023-08-08T07:23:15;31.60;33.60
80212;DHT22;70434;37.956;23.722;2023-08-08T07:25:42;31.60;33.40
80212;DHT22;70434;37.956;23.722;2023-08-08T07:28:08;31.70;33.30
80212;DHT22;70434;37.956;23.722;2023-08-08T07:30:36;31.70;32.80
80212;DHT22;70434;37.956;23.722;2023-08-08T07:33:02;31.80;32.90
80212;DHT22;70434;37.956;23.722;2023-08-08T07:35:28;31.80;33.00
80212;DHT22;70434;37.956;23.722;2023-08-08T07:37:53;31.90;32.60
80212;DHT22;70434;37.956;23.722;2023-08-08T07:40:20;32.00;32.40
80212;DHT22;70434;37.956;23.722;2023-08-08T07:42:47;32.00;32.40
80212;DHT22;70434;37.956;23.722;2023-08-08T07:45:13;31.90;32.80
80212;DHT22;70434;37.956;23.722;2023-08-08T07:47:39;31.90;32.90
80212;DHT22;70434;37.956;23.722;2023-08-08T07:50:06;31.90;33.80
80212;DHT22;70434;37.956;23.722;2023-08-08T07:52:34;31.90;32.70
80212;DHT22;70434;37.956;23.722;2023-08-08T07:55:00;32.00;32.50
80212;DHT22;70434;37.956;23.722;2023-08-08T07:57:29;32.00;32.50
80212;DHT22;70434;37.956;23.722;2023-08-08T08:00:02;32.10;32.30
80212;DHT22;70434;37.956;23.722;2023-08-08T08:02:41;32.10;32.40
80212;DHT22;70434;37.956;23.722;2023-08-08T08:05:08;32.10;32.50
80212;DHT22;70434;37.956;23.722;2023-08-08T08:07:35;31.90;32.80
80212;DHT22;70434;37.956;23.722;2023-08-08T08:10:03;31.90;32.20
80212;DHT22;70434;37.956;23.722;2023-08-08T08:12:30;31.90;32.70
80212;DHT22;70434;37.956;23.722;2023-08-08T08:14:56;31.90;33.20
80212;DHT22;70434;37.956;23.722;2023-08-08T08:17:22;31.90;32.80
80212;DHT22;70434;37.956;23.722;2023-08-08T08:19:47;32.00;32.60
80212;DHT22;70434;37.956;23.722;2023-08-08T08:22:13;32.00;33.00
80212;DHT22;70434;37.956;23.722;2023-08-08T08:24:39;32.10;33.40
80212;DHT22;70434;37.956;23.722;2023-08-08T08:27:05;31.80;34.10
80212;DHT22;70434;37.956;23.722;2023-08-08T08:29:31;31.60;35.10
80212;DHT22;70434;37.956;23.722;2023-08-08T08:31:58;31.60;36.80
80212;DHT22;70434;37.956;23.722;2023-08-08T08:34:24;31.70;36.00
80212;DHT22;70434;37.956;23.722;2023-08-08T08:36:49;31.90;36.00
80212;DHT22;70434;37.956;23.722;2023-08-08T08:39:15;31.90;36.40
80212;DHT22;70434;37.956;23.722;2023-08-08T08:41:41;31.90;36.20
80212;DHT22;70434;37.956;23.722;2023-08-08T08:44:08;32.00;36.50
80212;DHT22;70434;37.956;23.722;2023-08-08T08:46:35;32.00;35.90
80212;DHT22;70434;37.956;23.722;2023-08-08T08:49:03;32.10;35.70
80212;DHT22;70434;37.956;23.722;2023-08-08T08:51:31;32.20;35.10
80212;DHT22;70434;37.956;23.722;2023-08-08T08:53:58;32.30;35.00
80212;DHT22;70434;37.956;23.722;2023-08-08T08:56:24;32.40;34.10
80212;DHT22;70434;37.956;23.722;2023-08-08T08:58:51;32.60;34.20
80212;DHT22;70434;37.956;23.722;2023-08-08T09:01:17;32.60;33.90
80212;DHT22;70434;37.956;23.722;2023-08-08T09:03:45;32.70;34.20
80212;DHT22;70434;37.956;23.722;2023-08-08T09:06:11;32.80;33.80
80212;DHT22;70434;37.956;23.722;2023-08-08T09:08:37;32.90;33.80
80212;DHT22;70434;37.956;23.722;2023-08-08T09:11:03;32.90;33.30
80212;DHT22;70434;37.956;23.722;2023-08-08T09:13:39;32.90;33.00
80212;DHT22;70434;37.956;23.722;2023-08-08T09:16:08;33.00;32.90
80212;DHT22;70434;37.956;23.722;2023-08-08T09:18:37;33.10;33.10
80212;DHT22;70434;37.956;23.722;2023-08-08T09:21:04;33.10;32.80
80212;DHT22;70434;37.956;23.722;2023-08-08T09:23:30;33.10;32.70
80212;DHT22;70434;37.956;23.722;2023-08-08T09:25:56;33.10;32.60
80212;DHT22;70434;37.956;23.722;2023-08-08T09:28:22;33.20;32.50
80212;DHT22;70434;37.956;23.722;2023-08-08T09:30:48;33.20;32.30
80212;DHT22;70434;37.956;23.722;2023-08-08T09:33:13;33.20;33.10
80212;DHT22;70434;37.956;23.722;2023-08-08T09:35:39;33.20;32.30
80212;DHT22;70434;37.956;23.722;2023-08-08T09:38:05;33.30;32.00
80212;DHT22;70434;37.956;23.722;2023-08-08T09:40:31;33.30;31.70
80212;DHT22;70434;37.956;23.722;2023-08-08T09:42:57;33.30;31.70
80212;DHT22;70434;37.956;23.722;2023-08-08T09:45:26;33.30;32.10
80212;DHT22;70434;37.956;23.722;2023-08-08T09:47:52;33.40;32.00
80212;DHT22;70434;37.956;23.722;2023-08-08T09:50:18;33.40;32.00
80212;DHT22;70434;37.956;23.722;2023-08-08T09:52:46;33.40;31.70
80212;DHT22;70434;37.956;23.722;2023-08-08T09:55:13;33.50;31.60
80212;DHT22;70434;37.956;23.722;2023-08-08T09:57:39;33.60;31.30
80212;DHT22;70434;37.956;23.722;2023-08-08T10:00:06;33.60;31.70
80212;DHT22;70434;37.956;23.722;2023-08-08T10:02:36;33.60;31.90
80212;DHT22;70434;37.956;23.722;2023-08-08T10:05:04;33.60;31.40
80212;DHT22;70434;37.956;23.722;2023-08-08T10:07:30;33.60;31.10
80212;DHT22;70434;37.956;23.722;2023-08-08T10:09:56;33.70;31.00
80212;DHT22;70434;37.956;23.722;2023-08-08T10:12:24;33.90;31.00
80212;DHT22;70434;37.956;23.722;2023-08-08T10:14:51;34.00;31.30
80212;DHT22;70434;37.956;23.722;2023-08-08T10:17:18;34.00;31.30
80212;DHT22;70434;37.956;23.722;2023-08-08T10:20:10;34.00;30.80
80212;DHT22;70434;37.956;23.722;2023-08-08T10:22:44;34.10;30.60
80212;DHT22;70434;37.956;23.722;2023-08-08T10:25:28;34.10;30.90
80212;DHT22;70434;37.956;23.722;2023-08-08T10:28:12;34.10;30.90
80212;DHT22;70434;37.956;23.722;2023-08-08T10:31:03;34.10;30.70
80212;DHT22;70434;37.956;23.722;2023-08-08T10:33:42;34.10;30.50
80212;DHT22;70434;37.956;23.722;2023-08-08T10:36:10;34.10;30.50
80212;DHT22;70434;37.956;23.722;2023-08-08T10:38:47;34.10;30.50
80212;DHT22;70434;37.956;23.722;2023-08-08T10:41:21;34.00;30.50
80212;DHT22;70434;37.956;23.722;2023-08-08T10:44:08;34.10;31.00
80212;DHT22;70434;37.956;23.722;2023-08-08T10:46:34;34.10;31.10
80212;DHT22;70434;37.956;23.722;2023-08-08T10:49:02;34.10;31.20
80212;DHT22;70434;37.956;23.722;2023-08-08T10:51:38;34.20;30.70
80212;DHT22;70434;37.956;23.722;2023-08-08T10:54:22;34.40;31.30
80212;DHT22;70434;37.956;23.722;2023-08-08T10:56:53;34.40;30.20
80212;DHT22;70434;37.956;23.722;2023-08-08T10:59:28;34.50;29.80
80212;DHT22;70434;37.956;23.722;2023-08-08T11:02:01;34.50;29.90
80212;DHT22;70434;37.956;23.722;2023-08-08T11:04:27;34.50;29.70
80212;DHT22;70434;37.956;23.722;2023-08-08T11:06:55;34.50;29.40
80212;DHT22;70434;37.956;23.722;2023-08-08T11:09:21;34.60;29.30
80212;DHT22;70434;37.956;23.722;2023-08-08T11:11:47;34.70;29.20
80212;DHT22;70434;37.956;23.722;2023-08-08T11:16:41;34.80;29.60
80212;DHT22;70434;37.956;23.722;2023-08-08T11:19:07;35.00;29.10
80212;DHT22;70434;37.956;23.722;2023-08-08T11:21:34;35.10;29.00
80212;DHT22;70434;37.956;23.722;2023-08-08T11:24:01;35.20;28.90
80212;DHT22;70434;37.956;23.722;2023-08-08T11:26:27;35.20;28.60
80212;DHT22;70434;37.956;23.722;2023-08-08T11:28:58;35.20;28.60
80212;DHT22;70434;37.956;23.722;2023-08-08T11:31:24;35.10;28.80
80212;DHT22;70434;37.956;23.722;2023-08-08T11:33:50;34.90;28.70
80212;DHT22;70434;37.956;23.722;2023-08-08T11:36:16;34.90;29.00
80212;DHT22;70434;37.956;23.722;2023-08-08T11:38:42;34.80;29.00
80212;DHT22;70434;37.956;23.722;2023-08-08T11:41:13;34.80;28.80
80212;DHT22;70434;37.956;23.722;2023-08-08T11:43:40;34.80;28.50
80212;DHT22;70434;37.956;23.722;2023-08-08T11:46:12;34.80;28.60
80212;DHT22;70434;37.956;23.722;2023-08-08T11:48:39;34.80;28.80
80212;DHT22;70434;37.956;23.722;2023-08-08T11:51:05;34.90;28.60
80212;DHT22;70434;37.956;23.722;2023-08-08T11:53:31;34.90;28.80
80212;DHT22;70434;37.956;23.722;2023-08-08T11:55:58;34.90;28.80
80212;DHT22;70434;37.956;23.722;2023-08-08T11:58:25;34.90;28.80
80212;DHT22;70434;37.956;23.722;2023-08-08T12:00:51;34.90;28.20
80212;DHT22;70434;37.956;23.722;2023-08-08T12:03:18;35.00;28.20
80212;DHT22;70434;37.956;23.722;2023-08-08T12:05:47;35.10;28.10
80212;DHT22;70434;37.956;23.722;2023-08-08T12:08:17;35.20;28.10
80212;DHT22;70434;37.956;23.722;2023-08-08T12:10:47;35.30;27.80
80212;DHT22;70434;37.956;23.722;2023-08-08T12:13:15;35.30;27.80
80212;DHT22;70434;37.956;23.722;2023-08-08T12:15:42;35.30;27.80
80212;DHT22;70434;37.956;23.722;2023-08-08T12:18:08;35.20;27.30
80212;DHT22;70434;37.956;23.722;2023-08-08T12:20:34;34.90;27.60
80212;DHT22;70434;37.956;23.722;2023-08-08T12:23:00;34.80;27.90
80212;DHT22;70434;37.956;23.722;2023-08-08T12:25:26;34.90;28.00
80212;DHT22;70434;37.956;23.722;2023-08-08T12:27:51;35.10;27.90
80212;DHT22;70434;37.956;23.722;2023-08-08T12:30:17;35.30;27.70
80212;DHT22;70434;37.956;23.722;2023-08-08T12:32:43;35.40;27.10
80212;DHT22;70434;37.956;23.722;2023-08-08T12:35:09;35.50;27.10
80212;DHT22;70434;37.956;23.722;2023-08-08T12:37:36;35.70;27.20
80212;DHT22;70434;37.956;23.722;2023-08-08T12:40:02;35.70;27.30
80212;DHT22;70434;37.956;23.722;2023-08-08T12:42:28;35.60;27.30
80212;DHT22;70434;37.956;23.722;2023-08-08T12:44:54;35.60;27.50
80212;DHT22;70434;37.956;23.722;2023-08-08T12:47:20;35.50;28.40
80212;DHT22;70434;37.956;23.722;2023-08-08T12:49:47;35.40;27.80
80212;DHT22;70434;37.956;23.722;2023-08-08T12:52:13;35.40;27.90
80212;DHT22;70434;37.956;23.722;2023-08-08T12:54:39;35.30;28.10
80212;DHT22;70434;37.956;23.722;2023-08-08T12:57:05;35.40;28.10
80212;DHT22;70434;37.956;23.722;2023-08-08T12:59:30;35.70;28.20
80212;DHT22;70434;37.956;23.722;2023-08-08T13:01:56;36.00;28.20
80212;DHT22;70434;37.956;23.722;2023-08-08T13:04:22;36.20;27.60
80212;DHT22;70434;37.956;23.722;2023-08-08T13:06:48;36.40;27.40
80212;DHT22;70434;37.956;23.722;2023-08-08T13:09:14;36.60;27.00
80212;DHT22;70434;37.956;23.722;2023-08-08T13:11:41;36.60;26.70
80212;DHT22;70434;37.956;23.722;2023-08-08T13:14:07;36.70;26.90
80212;DHT22;70434;37.956;23.722;2023-08-08T13:16:33;36.70;26.90
80212;DHT22;70434;37.956;23.722;2023-08-08T13:18:58;36.60;26.80
80212;DHT22;70434;37.956;23.722;2023-08-08T13:21:24;36.60;26.80
80212;DHT22;70434;37.956;23.722;2023-08-08T13:23:50;36.50;26.80
80212;DHT22;70434;37.956;23.722;2023-08-08T13:26:16;36.50;27.00
80212;DHT22;70434;37.956;23.722;2023-08-08T13:28:41;36.40;27.20
80212;DHT22;70434;37.956;23.722;2023-08-08T13:31:08;36.30;27.00
80212;DHT22;70434;37.956;23.722;2023-08-08T13:33:34;36.20;27.20
80212;DHT22;70434;37.956;23.722;2023-08-08T13:36:00;36.10;27.10
80212;DHT22;70434;37.956;23.722;2023-08-08T13:38:26;36.00;27.40
80212;DHT22;70434;37.956;23.722;2023-08-08T13:40:52;35.90;27.80
80212;DHT22;70434;37.956;23.722;2023-08-08T13:43:19;35.70;29.00
80212;DHT22;70434;37.956;23.722;2023-08-08T13:45:45;35.50;30.30
80212;DHT22;70434;37.956;23.722;2023-08-08T13:48:11;35.40;30.70
80212;DHT22;70434;37.956;23.722;2023-08-08T13:50:36;35.20;31.20
80212;DHT22;70434;37.956;23.722;2023-08-08T13:53:03;34.90;31.70
80212;DHT22;70434;37.956;23.722;2023-08-08T13:55:29;34.90;31.90
80212;DHT22;70434;37.956;23.722;2023-08-08T13:57:55;34.90;32.00
80212;DHT22;70434;37.956;23.722;2023-08-08T14:00:21;34.70;32.50
80212;DHT22;70434;37.956;23.722;2023-08-08T14:02:47;34.70;32.50
80212;DHT22;70434;37.956;23.722;2023-08-08T14:05:13;34.60;32.60
80212;DHT22;70434;37.956;23.722;2023-08-08T14:07:39;34.50;32.90
80212;DHT22;70434;37.956;23.722;2023-08-08T14:10:05;34.40;32.90
80212;DHT22;70434;37.956;23.722;2023-08-08T14:12:31;34.40;33.30
80212;DHT22;70434;37.956;23.722;2023-08-08T14:14:57;34.30;33.40
80212;DHT22;70434;37.956;23.722;2023-08-08T14:17:23;34.30;33.00
80212;DHT22;70434;37.956;23.722;2023-08-08T14:19:49;34.30;32.80
80212;DHT22;70434;37.956;23.722;2023-08-08T14:22:14;34.40;32.90
80212;DHT22;70434;37.956;23.722;2023-08-08T14:24:42;34.50;32.60
80212;DHT22;70434;37.956;23.722;2023-08-08T14:27:09;34.60;32.60
80212;DHT22;70434;37.956;23.722;2023-08-08T14:29:35;34.70;32.10
80212;DHT22;70434;37.956;23.722;2023-08-08T14:32:01;34.80;31.90
80212;DHT22;70434;37.956;23.722;2023-08-08T14:34:30;34.90;31.70
80212;DHT22;70434;37.956;23.722;2023-08-08T14:36:57;34.80;31.90
80212;DHT22;70434;37.956;23.722;2023-08-08T14:39:23;34.80;32.30
80212;DHT22;70434;37.956;23.722;2023-08-08T14:41:49;34.90;32.00
80212;DHT22;70434;37.956;23.722;2023-08-08T14:44:16;34.80;32.10
80212;DHT22;70434;37.956;23.722;2023-08-08T14:46:42;34.70;31.60
80212;DHT22;70434;37.956;23.722;2023-08-08T14:49:07;34.60;31.90
80212;DHT22;70434;37.956;23.722;2023-08-08T14:51:34;34.50;32.20
80212;DHT22;70434;37.956;23.722;2023-08-08T14:54:00;34.40;32.60
80212;DHT22;70434;37.956;23.722;2023-08-08T14:56:26;34.30;32.80
80212;DHT22;70434;37.956;23.722;2023-08-08T14:58:52;34.40;32.90
80212;DHT22;70434;37.956;23.722;2023-08-08T15:01:17;34.50;32.80
80212;DHT22;70434;37.956;23.722;2023-08-08T15:03:44;34.50;32.50
80212;DHT22;70434;37.956;23.722;2023-08-08T15:06:10;34.40;32.70
80212;DHT22;70434;37.956;23.722;2023-08-08T15:08:36;34.30;33.00
80212;DHT22;70434;37.956;23.722;2023-08-08T15:11:02;34.10;33.50
80212;DHT22;70434;37.956;23.722;2023-08-08T15:13:28;34.00;33.50
80212;DHT22;70434;37.956;23.722;2023-08-08T15:15:54;33.80;33.20
80212;DHT22;70434;37.956;23.722;2023-08-08T15:18:19;33.60;33.30